Time;durP1;ratioP1;P1;durP2;ratioP2;P2;SDS_P1;SDS_P2;PMS_P1;PMS_P2;Temp;Humidity;BMP_temperature;BMP_pressure;BME280_temperature;BME280_humidity;BME280_pressure;Samples;Min_cycle;Max_cycle;Signal;HPM_P1;HPM_P2
2022/11/17 00:01:58;;;;;;;19.55;13.25;;;;;;;7.15;100.00;97314.72;5030286;28;20055;-63
2022/11/17 00:04:25;;;;;;;21.85;14.38;;;;;;;7.10;100.00;97303.81;5029673;28;20423;-63
2022/11/17 00:06:51;;;;;;;30.65;18.92;;;;;;;7.12;100.00;97300.38;5031189;28;20040;-64
2022/11/17 00:09:17;;;;;;;23.67;16.33;;;;;;;7.09;100.00;97292.78;5029572;28;20045;-62
2022/11/17 00:14:31;;;;;;;18.50;13.05;;;;;;;7.07;100.00;97307.31;5029454;28;20037;-64
2022/11/17 00:16:59;;;;;;;34.55;22.10;;;;;;;7.06;100.00;97313.25;5028946;28;20045;-65
2022/11/17 00:22:12;;;;;;;37.88;25.80;;;;;;;7.04;100.00;97299.75;5031665;28;20052;-63
2022/11/17 00:24:38;;;;;;;23.25;15.50;;;;;;;7.05;100.00;97311.59;5026925;28;20053;-63
2022/11/17 00:27:04;;;;;;;21.52;13.32;;;;;;;6.98;100.00;97273.56;5029134;28;20050;-64
2022/11/17 00:29:33;;;;;;;19.88;12.80;;;;;;;7.08;100.00;97280.94;5044974;28;20127;-62
2022/11/17 00:34:43;;;;;;;23.80;14.40;;;;;;;7.09;100.00;97287.69;5029775;28;20140;-64
2022/11/17 00:37:10;;;;;;;19.75;12.77;;;;;;;7.02;100.00;97291.28;5044265;28;20274;-64
2022/11/17 00:39:36;;;;;;;20.42;12.85;;;;;;;7.13;100.00;97313.97;5029410;28;20167;-64
2022/11/17 00:42:02;;;;;;;19.02;12.60;;;;;;;7.09;100.00;97308.06;5039139;28;20482;-63
2022/11/17 00:44:29;;;;;;;25.15;14.88;;;;;;;6.97;100.00;97293.13;5029059;28;20045;-64
2022/11/17 00:46:54;;;;;;;26.92;16.13;;;;;;;6.80;100.00;97290.16;5029083;28;20036;-63
2022/11/17 00:49:23;;;;;;;31.15;18.70;;;;;;;6.90;100.00;97301.81;5031092;28;20057;-63
2022/11/17 00:51:58;;;;;;;23.35;14.02;;;;;;;6.72;100.00;97300.56;5029511;28;20048;-63
2022/11/17 00:54:24;;;;;;;23.13;13.02;;;;;;;6.53;100.00;97295.97;5030041;28;20484;-64
2022/11/17 00:56:49;;;;;;;19.63;12.50;;;;;;;6.50;100.00;97293.47;5020414;28;20075;-62
2022/11/17 00:59:15;;;;;;;18.00;11.90;;;;;;;6.52;100.00;97302.78;5023225;28;20076;-65
2022/11/17 01:01:42;;;;;;;21.77;12.95;;;;;;;6.48;100.00;97311.34;5029970;28;20116;-64
2022/11/17 01:04:08;;;;;;;18.92;14.23;;;;;;;6.47;100.00;97308.84;5029788;28;20053;-63
2022/11/17 01:06:52;;;;;;;20.30;13.13;;;;;;;6.49;100.00;97294.38;5008121;28;20472;-62
2022/11/17 01:09:18;;;;;;;27.17;17.80;;;;;;;6.48;100.00;97290.16;5029826;28;20056;-62
2022/11/17 01:11:45;;;;;;;25.50;15.20;;;;;;;6.47;100.00;97296.09;5031138;28;20476;-64
2022/11/17 01:14:17;;;;;;;20.10;12.88;;;;;;;6.39;100.00;97289.50;5027947;28;20559;-62
2022/11/17 01:16:43;;;;;;;21.63;12.45;;;;;;;6.28;100.00;97288.09;5028160;28;20046;-66
2022/11/17 01:19:11;;;;;;;17.92;12.80;;;;;;;6.22;100.00;97280.59;5028935;28;20156;-63
2022/11/17 01:21:36;;;;;;;23.40;12.18;;;;;;;6.16;100.00;97279.00;5029149;28;20052;-64
2022/11/17 01:24:02;;;;;;;19.17;12.63;;;;;;;6.04;100.00;97274.22;5029504;28;20121;-63
2022/11/17 01:26:34;;;;;;;17.17;11.73;;;;;;;6.00;100.00;97270.06;5027335;28;20044;-63
2022/11/17 01:29:01;;;;;;;17.13;12.13;;;;;;;5.92;100.00;97267.69;5029241;28;20037;-64
2022/11/17 01:31:33;;;;;;;18.83;12.60;;;;;;;5.86;100.00;97266.94;5029105;28;20134;-62
2022/11/17 01:33:59;;;;;;;20.87;11.57;;;;;;;5.77;100.00;97259.56;5025620;28;20065;-64
2022/11/17 01:39:26;;;;;;;20.37;11.30;;;;;;;5.50;100.00;97235.56;5040743;28;20220;-65
2022/11/17 01:41:52;;;;;;;18.90;11.33;;;;;;;5.52;100.00;97265.16;5028115;28;20045;-61
2022/11/17 01:44:49;;;;;;;19.57;11.70;;;;;;;5.47;100.00;97269.47;5018363;28;20045;-64
2022/11/17 01:47:21;;;;;;;22.70;13.10;;;;;;;5.26;100.00;97252.13;5026727;28;20030;-63
2022/11/17 01:49:49;;;;;;;17.53;12.83;;;;;;;5.28;100.00;97270.75;5043529;28;20053;-64
2022/11/17 01:52:15;;;;;;;17.80;11.87;;;;;;;5.23;100.00;97274.22;5027966;28;20376;-64
2022/11/17 01:54:42;;;;;;;18.93;12.00;;;;;;;5.24;100.00;97276.75;5027754;28;20467;-63
2022/11/17 01:57:12;;;;;;;19.27;11.63;;;;;;;5.09;100.00;97249.13;5023849;28;20084;-64
2022/11/17 01:59:45;;;;;;;22.07;14.10;;;;;;;5.03;100.00;97231.44;5026794;28;20044;-64
2022/11/17 02:02:11;;;;;;;19.43;12.70;;;;;;;5.11;100.00;97249.91;5022818;28;20144;-64
2022/11/17 02:04:43;;;;;;;23.27;13.57;;;;;;;5.11;100.00;97251.63;5019141;28;20050;-64
2022/11/17 02:07:30;;;;;;;20.03;13.27;;;;;;;5.04;100.00;97256.81;5026469;28;20155;-65
2022/11/17 02:09:57;;;;;;;21.00;12.53;;;;;;;4.83;100.00;97231.84;5029091;28;20036;-65
2022/11/17 02:12:25;;;;;;;18.07;11.30;;;;;;;4.80;100.00;97226.81;5025488;28;20099;-65
2022/11/17 02:14:52;;;;;;;17.47;11.03;;;;;;;4.76;100.00;97222.66;5026384;28;20041;-65
2022/11/17 02:17:20;;;;;;;17.70;10.87;;;;;;;4.78;100.00;97225.16;5028289;28;20042;-64
2022/11/17 02:20:00;;;;;;;20.90;11.87;;;;;;;4.57;100.00;97212.00;5030398;28;20150;-64
2022/11/17 02:22:47;;;;;;;22.73;13.00;;;;;;;4.65;100.00;97221.19;5032147;28;20037;-64
2022/11/17 02:25:29;;;;;;;20.63;11.83;;;;;;;4.62;100.00;97223.78;5026360;28;20254;-64
2022/11/17 02:28:01;;;;;;;19.10;12.07;;;;;;;4.54;100.00;97224.75;5025651;28;20527;-64
2022/11/17 02:30:36;;;;;;;21.67;13.33;;;;;;;4.49;100.00;97228.25;5030040;28;20036;-64
2022/11/17 02:33:39;;;;;;;17.20;11.37;;;;;;;4.44;100.00;97224.94;5031675;28;20464;-64
2022/11/17 02:36:19;;;;;;;19.03;10.73;;;;;;;4.38;100.00;97218.25;4997330;28;20056;-65
2022/11/17 02:39:20;;;;;;;20.50;12.90;;;;;;;4.39;100.00;97227.56;5031855;28;20037;-63
2022/11/17 02:41:55;;;;;;;23.00;13.37;;;;;;;4.41;100.00;97225.81;5026555;28;20057;-62
2022/11/17 02:44:38;;;;;;;24.80;12.70;;;;;;;4.39;100.00;97214.88;5032504;28;20041;-62
2022/11/17 02:47:32;;;;;;;19.13;11.23;;;;;;;4.42;100.00;97216.50;5033220;28;20079;-63
2022/11/17 02:50:04;;;;;;;22.87;12.50;;;;;;;4.38;100.00;97220.81;5026567;28;20466;-63
2022/11/17 02:52:30;;;;;;;23.00;12.77;;;;;;;4.35;100.00;97225.09;5030563;28;20498;-64
2022/11/17 02:55:00;;;;;;;25.13;13.50;;;;;;;4.24;100.00;97205.00;5027410;28;20048;-63
2022/11/17 02:57:37;;;;;;;21.37;13.07;;;;;;;4.32;100.00;97226.00;5025637;28;20088;-63
2022/11/17 03:00:07;;;;;;;24.10;13.97;;;;;;;4.36;100.00;97230.16;5031802;28;20165;-64
2022/11/17 03:02:51;;;;;;;19.83;12.50;;;;;;;4.35;100.00;97231.00;5033746;28;20065;-63
2022/11/17 03:05:32;;;;;;;18.93;12.83;;;;;;;4.31;100.00;97223.47;5031771;28;20033;-63
2022/11/17 03:08:10;;;;;;;18.20;12.70;;;;;;;4.32;100.00;97226.00;5030649;28;20049;-63
2022/11/17 03:10:58;;;;;;;22.40;12.97;;;;;;;4.32;100.00;97222.63;5030133;28;20511;-63
2022/11/17 03:13:34;;;;;;;19.43;12.73;;;;;;;4.23;100.00;97226.16;5025608;28;20041;-64
2022/11/17 03:16:18;;;;;;;;;;;;;;;4.27;100.00;97225.22;5027830;28;20065;-64
2022/11/17 03:19:05;;;;;;;19.67;12.83;;;;;;;4.27;100.00;97217.63;5031393;28;20336;-63
2022/11/17 03:21:45;;;;;;;22.67;13.43;;;;;;;4.35;100.00;97228.47;5025721;28;20048;-63
2022/11/17 03:24:40;;;;;;;23.37;13.03;;;;;;;4.37;100.00;97231.00;5025861;28;20121;-62
2022/11/17 03:27:18;;;;;;;22.35;13.30;;;;;;;4.34;100.00;97233.56;5023452;28;20492;-64
2022/11/17 03:29:48;;;;;;;17.10;11.57;;;;;;;4.36;100.00;97232.69;5030608;28;20044;-64
2022/11/17 03:32:16;;;;;;;23.47;14.00;;;;;;;4.36;100.00;97229.31;5030606;28;20170;-64
2022/11/17 03:34:47;;;;;;;21.23;12.20;;;;;;;4.35;100.00;97212.41;5024890;28;20041;-63
2022/11/17 03:37:17;;;;;;;19.90;11.53;;;;;;;4.41;100.00;97232.63;5028685;28;20041;-63
2022/11/17 03:39:58;;;;;;;22.37;11.93;;;;;;;4.39;100.00;97229.25;5046063;28;20122;-63
2022/11/17 03:42:30;;;;;;;21.57;13.30;;;;;;;4.42;100.00;97224.13;5033056;28;20486;-63
2022/11/17 03:45:01;;;;;;;23.37;12.63;;;;;;;4.36;100.00;97214.09;5030694;28;20099;-63
2022/11/17 03:47:30;;;;;;;24.53;13.37;;;;;;;4.44;100.00;97225.78;5032562;28;20045;-63
2022/11/17 03:49:58;;;;;;;27.13;13.37;;;;;;;4.42;100.00;97230.03;5030762;28;20041;-63
2022/11/17 03:52:25;;;;;;;25.83;13.30;;;;;;;4.44;100.00;97219.88;5027262;28;20069;-63
2022/11/17 03:54:54;;;;;;;20.90;12.23;;;;;;;4.40;100.00;97229.25;5031988;28;20041;-65
2022/11/17 03:57:31;;;;;;;22.53;12.07;;;;;;;4.41;100.00;97230.88;5030662;28;20041;-64
2022/11/17 04:00:09;;;;;;;22.07;13.43;;;;;;;4.43;100.00;97236.78;5031975;28;20045;-64
2022/11/17 04:02:42;;;;;;;21.60;13.60;;;;;;;4.31;100.00;97214.16;5033228;28;20067;-64
2022/11/17 04:05:08;;;;;;;22.63;13.33;;;;;;;4.39;100.00;97225.03;5030928;28;20063;-64
2022/11/17 04:07:39;;;;;;;19.87;12.87;;;;;;;4.35;100.00;97217.50;5023131;28;20053;-64
2022/11/17 04:10:08;;;;;;;23.90;12.67;;;;;;;4.42;100.00;97202.13;5031658;28;20125;-63
2022/11/17 04:18:03;;;;;;;22.17;13.00;;;;;;;4.55;100.00;97225.56;5031131;28;20128;-64
2022/11/17 04:20:35;;;;;;;21.60;13.33;;;;;;;4.64;100.00;97201.72;5030942;28;20049;-63
2022/11/17 04:23:10;;;;;;;22.10;12.77;;;;;;;4.60;100.00;97206.88;5029366;28;20041;-63
2022/11/17 04:28:35;;;;;;;22.57;11.83;;;;;;;5.06;100.00;97214.44;5033336;28;20057;-63
2022/11/17 04:31:24;;;;;;;19.03;11.50;;;;;;;4.98;100.00;97228.16;5030541;28;20052;-63
2022/11/17 04:33:54;;;;;;;21.07;12.60;;;;;;;4.82;100.00;97206.47;5032742;28;20084;-63
2022/11/17 04:36:23;;;;;;;21.37;13.13;;;;;;;4.82;100.00;97209.00;5031375;28;20045;-66
2022/11/17 04:38:52;;;;;;;21.63;13.20;;;;;;;4.90;100.00;97227.47;5032449;28;20102;-63
2022/11/17 04:44:05;;;;;;;19.10;11.80;;;;;;;4.85;100.00;97230.09;5030619;28;20037;-63
2022/11/17 04:46:33;;;;;;;20.33;13.70;;;;;;;4.77;100.00;97209.09;5033194;28;20053;-63
2022/11/17 04:48:59;;;;;;;23.07;12.47;;;;;;;5.01;100.00;97207.78;5030939;28;20045;-63
2022/11/17 04:51:26;;;;;;;21.67;12.57;;;;;;;4.94;100.00;97201.16;5029411;28;20102;-63
2022/11/17 04:53:52;;;;;;;20.77;12.13;;;;;;;4.93;100.00;97219.78;5030804;28;20042;-62
2022/11/17 04:56:18;;;;;;;19.50;11.27;;;;;;;4.81;100.00;97213.25;5027895;28;20045;-62
2022/11/17 04:58:44;;;;;;;23.87;12.60;;;;;;;4.76;100.00;97215.03;5030529;28;20133;-62
2022/11/17 05:01:13;;;;;;;17.33;11.47;;;;;;;4.82;100.00;97224.25;5029648;28;20078;-62
2022/11/17 05:03:49;;;;;;;19.93;12.10;;;;;;;4.89;100.00;97229.16;5031566;28;20079;-63
2022/11/17 05:06:17;;;;;;;21.40;13.03;;;;;;;4.88;100.00;97239.38;5029895;28;20037;-63
2022/11/17 05:08:43;;;;;;;18.40;11.97;;;;;;;4.86;100.00;97241.09;5029674;28;20045;-63
2022/11/17 05:13:56;;;;;;;18.07;12.00;;;;;;;4.74;100.00;97232.00;5029895;28;20045;-63
2022/11/17 05:19:10;;;;;;;32.58;18.77;;;;;;;4.66;100.00;97230.47;5030060;28;20050;-63
2022/11/17 05:21:36;;;;;;;25.33;15.57;;;;;;;4.62;100.00;97214.47;5028612;28;20511;-63
2022/11/17 05:24:02;;;;;;;24.33;13.23;;;;;;;4.62;100.00;97219.56;5031054;28;20155;-63
2022/11/17 05:26:31;;;;;;;24.03;13.23;;;;;;;4.62;100.00;97223.78;5029319;28;20404;-63
2022/11/17 05:28:58;;;;;;;20.30;12.47;;;;;;;4.51;100.00;97209.56;5029984;28;20658;-63
2022/11/17 05:31:24;;;;;;;25.77;13.97;;;;;;;4.57;100.00;97221.31;5030693;28;20151;-62
2022/11/17 05:33:50;;;;;;;24.37;14.30;;;;;;;4.54;100.00;97229.81;5027443;28;20037;-63
2022/11/17 05:36:17;;;;;;;28.27;15.77;;;;;;;4.55;100.00;97231.50;5026458;28;20039;-65
2022/11/17 05:38:42;;;;;;;23.53;13.27;;;;;;;4.54;100.00;97234.88;5029648;28;20504;-63
2022/11/17 05:41:08;;;;;;;50.17;26.27;;;;;;;4.57;100.00;97234.00;5028803;28;20290;-63
2022/11/17 05:43:34;;;;;;;62.03;34.73;;;;;;;4.59;100.00;97238.19;5038845;28;20626;-63
2022/11/17 05:45:59;;;;;;;24.60;15.30;;;;;;;4.57;100.00;97227.25;5030269;28;20052;-62
2022/11/17 05:48:25;;;;;;;36.97;21.97;;;;;;;4.65;100.00;97254.19;5030378;28;20137;-63
2022/11/17 05:50:52;;;;;;;60.70;34.13;;;;;;;4.66;100.00;97246.53;5006013;28;20515;-62
2022/11/17 05:53:18;;;;;;;52.17;30.30;;;;;;;4.54;100.00;97227.28;5029652;28;20171;-65
2022/11/17 05:55:43;;;;;;;47.27;27.97;;;;;;;4.52;100.00;97223.94;5030824;28;20052;-62
2022/11/17 05:58:25;;;;;;;41.73;24.40;;;;;;;4.66;100.00;97246.53;5030369;28;20025;-62
2022/11/17 06:00:53;;;;;;;41.10;23.33;;;;;;;4.57;100.00;97250.09;5029064;28;20049;-63
2022/11/17 06:03:28;;;;;;;38.13;22.07;;;;;;;4.58;100.00;97249.19;5031488;28;20423;-64
2022/11/17 06:05:53;;;;;;;26.13;15.93;;;;;;;4.65;100.00;97246.56;5028679;28;20044;-63
2022/11/17 06:08:19;;;;;;;21.40;12.97;;;;;;;4.69;100.00;97254.09;5031517;28;20041;-62
2022/11/17 06:10:45;;;;;;;28.73;14.30;;;;;;;4.77;100.00;97259.03;5030700;28;20596;-60
2022/11/17 06:13:11;;;;;;;23.97;15.30;;;;;;;4.78;100.00;97255.63;5040326;28;20103;-63
2022/11/17 06:15:37;;;;;;;25.10;15.30;;;;;;;4.75;100.00;97251.47;5037665;28;20535;-64
2022/11/17 06:18:12;;;;;;;60.30;34.60;;;;;;;4.78;100.00;97253.09;5023999;28;20423;-64
2022/11/17 06:20:47;;;;;;;25.63;17.13;;;;;;;4.78;100.00;97245.47;5025249;28;20046;-64
2022/11/17 06:23:16;;;;;;;25.73;14.80;;;;;;;4.73;100.00;97234.56;5031025;28;20045;-64
2022/11/17 06:25:42;;;;;;;23.43;14.10;;;;;;;4.70;100.00;97225.31;5044872;28;20053;-63
2022/11/17 06:28:11;;;;;;;23.07;14.17;;;;;;;4.87;100.00;97251.22;5046199;28;20511;-63
2022/11/17 06:30:38;;;;;;;25.47;14.00;;;;;;;4.77;100.00;97231.09;5027578;28;20033;-64
2022/11/17 06:33:06;;;;;;;18.03;11.83;;;;;;;4.89;100.00;97254.56;5027967;28;20087;-59
2022/11/17 06:35:34;;;;;;;18.20;12.13;;;;;;;4.84;100.00;97232.66;5026358;28;20190;-62
2022/11/17 06:38:00;;;;;;;17.67;10.07;;;;;;;4.96;100.00;97250.22;5031003;28;20053;-62
2022/11/17 06:40:26;;;;;;;15.00;10.30;;;;;;;4.94;100.00;97252.78;5039543;28;20045;-62
2022/11/17 06:43:08;;;;;;;17.63;11.43;;;;;;;4.89;100.00;97235.94;5031432;28;20428;-63
2022/11/17 06:45:36;;;;;;;15.10;9.80;;;;;;;5.01;100.00;97256.03;5032302;28;20045;-62
2022/11/17 06:48:02;;;;;;;16.33;10.43;;;;;;;4.95;100.00;97246.00;5033272;28;20045;-61
2022/11/17 06:50:27;;;;;;;17.30;9.60;;;;;;;5.08;100.00;97255.06;4991200;28;1147117;-61
2022/11/17 06:53:04;;;;;;;14.90;10.57;;;;;;;5.20;100.00;97261.59;5032084;28;20045;-60
2022/11/17 06:55:33;;;;;;;19.30;11.37;;;;;;;5.23;100.00;97264.91;5030319;28;20191;-61
2022/11/17 06:58:00;;;;;;;20.00;11.43;;;;;;;5.25;100.00;97268.28;5029612;28;20519;-61
2022/11/17 07:00:28;;;;;;;17.60;11.63;;;;;;;5.28;100.00;97252.13;5045112;28;20496;-61
2022/11/17 07:02:59;;;;;;;22.03;12.17;;;;;;;5.41;100.00;97249.28;5031536;28;20049;-61
2022/11/17 07:05:25;;;;;;;24.87;13.43;;;;;;;5.50;100.00;97259.28;5030231;28;20180;-63
2022/11/17 07:07:51;;;;;;;29.27;18.53;;;;;;;5.48;100.00;97239.81;5028808;28;20053;-61
2022/11/17 07:10:16;;;;;;;26.43;15.57;;;;;;;5.61;100.00;97248.88;5031067;28;20054;-62
2022/11/17 07:12:44;;;;;;;20.60;13.00;;;;;;;5.65;100.00;97255.56;5030665;28;20076;-63
2022/11/17 07:15:10;;;;;;;22.20;13.23;;;;;;;5.70;100.00;97263.91;5032049;28;20037;-64
2022/11/17 07:17:35;;;;;;;21.00;14.30;;;;;;;5.74;100.00;97264.69;5028285;28;20398;-61
2022/11/17 07:20:02;;;;;;;24.37;15.03;;;;;;;5.84;100.00;97263.63;5046081;28;20041;-60
2022/11/17 07:22:29;;;;;;;25.53;15.47;;;;;;;5.92;100.00;97241.44;5028950;28;20060;-60
2022/11/17 07:24:54;;;;;;;19.53;12.17;;;;;;;5.95;100.00;97229.47;5031198;28;20341;-61
2022/11/17 07:27:20;;;;;;;20.70;13.23;;;;;;;6.08;100.00;97241.91;5013179;28;20350;-61
2022/11/17 07:29:46;;;;;;;21.07;12.40;;;;;;;6.16;100.00;97251.03;5031887;28;20432;-64
2022/11/17 07:32:12;;;;;;;20.07;14.07;;;;;;;6.20;100.00;97242.44;5030478;28;20103;-63
2022/11/17 07:34:39;;;;;;;25.53;13.53;;;;;;;6.29;100.00;97239.69;5028693;28;20034;-62
2022/11/17 07:37:06;;;;;;;22.67;13.30;;;;;;;6.31;100.00;97232.84;5023571;28;20141;-63
2022/11/17 07:39:32;;;;;;;26.20;12.77;;;;;;;6.22;100.00;97224.59;5024473;28;20223;-60
2022/11/17 07:41:57;;;;;;;25.97;14.20;;;;;;;6.39;100.00;97238.59;5023785;28;20095;-62
2022/11/17 07:44:23;;;;;;;21.53;13.67;;;;;;;6.48;100.00;97245.16;5025833;28;21010;-61
2022/11/17 07:46:49;;;;;;;20.07;14.57;;;;;;;6.53;100.00;97229.78;5039844;28;20041;-61
2022/11/17 07:49:15;;;;;;;25.97;14.17;;;;;;;6.70;100.00;97232.72;5025669;28;20527;-61
2022/11/17 07:51:41;;;;;;;24.90;15.67;;;;;;;6.79;100.00;97220.56;5032115;28;20472;-61
2022/11/17 07:54:06;;;;;;;21.90;14.60;;;;;;;6.88;100.00;97229.66;5027769;28;20107;-62
2022/11/17 07:56:33;;;;;;;21.27;14.00;;;;;;;6.96;100.00;97232.03;5031144;28;20077;-61
2022/11/17 07:58:59;;;;;;;21.63;14.40;;;;;;;7.01;100.00;97235.25;5026041;28;20037;-62
2022/11/17 08:01:28;;;;;;;20.33;15.15;;;;;;;6.96;100.00;97240.47;5025914;28;20076;-61
2022/11/17 08:03:55;;;;;;;20.15;14.15;;;;;;;6.85;100.00;97217.88;5024789;28;20504;-61
2022/11/17 08:06:22;;;;;;;21.67;14.38;;;;;;;6.96;100.00;97230.28;5030276;28;20051;-61
2022/11/17 08:08:48;;;;;;;25.00;14.40;;;;;;;7.11;100.00;97247.72;5044366;28;20049;-61
2022/11/17 08:11:15;;;;;;;22.60;15.60;;;;;;;7.16;100.00;97243.34;5027486;28;20045;-63
2022/11/17 08:13:41;;;;;;;26.00;16.70;;;;;;;7.06;100.00;97235.97;5024586;28;20063;-63
2022/11/17 08:16:08;;;;;;;23.15;16.02;;;;;;;7.28;100.00;97247.25;5024220;28;20041;-61
2022/11/17 08:18:34;;;;;;;23.42;15.50;;;;;;;7.26;100.00;97226.06;5031384;28;20113;-61
2022/11/17 08:21:02;;;;;;;23.75;15.55;;;;;;;7.45;100.00;97222.13;5023942;28;20115;-63
2022/11/17 08:23:28;;;;;;;20.80;14.80;;;;;;;7.68;100.00;97246.94;5019780;28;20642;-65
2022/11/17 08:25:53;;;;;;;22.80;14.60;;;;;;;7.67;100.00;97241.00;5032342;28;20136;-62
2022/11/17 08:28:19;;;;;;;18.73;13.55;;;;;;;7.77;100.00;97259.41;5027060;28;20051;-61
2022/11/17 08:30:46;;;;;;;20.27;14.20;;;;;;;7.78;100.00;97235.56;5031548;28;20045;-63
2022/11/17 08:33:11;;;;;;;21.15;12.88;;;;;;;7.87;100.00;97237.00;5028256;28;20049;-60
2022/11/17 08:35:37;;;;;;;16.17;11.85;;;;;;;7.92;100.00;97228.34;5030477;28;20103;-63
2022/11/17 08:38:03;;;;;;;15.82;11.00;;;;;;;7.97;100.00;97231.59;5026215;28;20064;-61
2022/11/17 08:40:28;;;;;;;17.90;13.18;;;;;;;8.01;100.00;97237.44;5022955;28;20091;-60
2022/11/17 08:42:54;;;;;;;15.57;11.73;;;;;;;8.13;100.00;97258.31;5020356;28;20037;-60
2022/11/17 08:45:20;;;;;;;17.50;12.13;;;;;;;8.11;100.00;97249.00;5016937;28;20500;-61
2022/11/17 08:47:45;;;;;;;21.60;12.93;;;;;;;8.26;100.00;97261.31;5022992;28;20032;-62
2022/11/17 08:50:11;;;;;;;19.50;12.52;;;;;;;8.28;100.00;97227.16;5019211;28;20490;-62
2022/11/17 08:52:36;;;;;;;17.77;13.35;;;;;;;8.70;100.00;97241.97;5022936;28;20114;-60
2022/11/17 08:55:04;;;;;;;20.70;13.57;;;;;;;8.76;100.00;97243.50;5026701;28;20048;-62
2022/11/17 08:57:30;;;;;;;22.95;14.75;;;;;;;8.57;100.00;97251.78;5022315;28;20041;-64
2022/11/17 08:59:56;;;;;;;19.70;12.00;;;;;;;8.56;100.00;97247.56;5014831;28;20369;-61
2022/11/17 09:02:22;;;;;;;18.17;12.13;;;;;;;9.11;100.00;97249.06;5030564;28;20489;-61
2022/11/17 09:04:47;;;;;;;23.75;13.25;;;;;;;9.37;100.00;97244.75;5030829;28;20044;-61
2022/11/17 09:07:13;;;;;;;18.23;12.02;;;;;;;9.33;100.00;97243.19;5030549;28;20657;-62
2022/11/17 09:09:39;;;;;;;16.00;11.23;;;;;;;9.31;100.00;97235.56;5029226;28;20041;-61
2022/11/17 09:12:04;;;;;;;13.90;9.27;;;;;;;9.45;100.00;97247.84;5029876;28;20076;-61
2022/11/17 09:14:30;;;;;;;16.30;10.30;;;;;;;9.55;100.00;97251.72;5029949;28;20435;-60
2022/11/17 09:16:56;;;;;;;16.05;9.73;;;;;;;9.48;100.00;97243.47;5019831;28;20465;-61
2022/11/17 09:19:21;;;;;;;15.23;10.15;;;;;;;9.40;100.00;97234.41;5024634;28;20045;-62
2022/11/17 09:21:47;;;;;;;13.18;9.65;;;;;;;9.37;100.00;97221.72;5031116;28;20075;-59
2022/11/17 09:24:13;;;;;;;12.18;9.00;;;;;;;9.49;100.00;97226.38;5039579;28;20140;-60
2022/11/17 09:26:39;;;;;;;11.93;8.52;;;;;;;9.73;100.00;97222.91;5004231;28;20133;-59
2022/11/17 09:29:06;;;;;;;14.52;8.80;;;;;;;9.86;100.00;97216.41;5027569;28;20498;-59
2022/11/17 09:31:33;;;;;;;14.52;9.77;;;;;;;9.74;100.00;97218.63;5026358;28;20041;-59
2022/11/17 09:33:59;;;;;;;15.93;9.40;;;;;;;9.45;100.00;97197.53;5024034;28;20179;-59
2022/11/17 09:36:24;;;;;;;12.48;8.70;;;;;;;9.43;100.00;97216.38;5028510;28;20630;-58
2022/11/17 09:38:50;;;;;;;16.17;10.52;;;;;;;9.47;100.00;97230.72;5029119;28;20048;-58
2022/11/17 09:41:19;;;;;;;12.10;8.85;;;;;;;9.25;100.00;97240.09;5030573;28;20461;-56
2022/11/17 09:43:53;;;;;;;15.95;9.77;;;;;;;9.16;100.00;97244.59;5029182;28;20080;-54
2022/11/17 09:46:28;;;;;;;13.85;9.98;;;;;;;9.24;100.00;97236.69;5024006;28;20056;-61
2022/11/17 09:49:11;;;;;;;13.23;9.00;;;;;;;9.60;100.00;97229.38;5021968;28;20049;-64
2022/11/17 09:51:41;;;;;;;16.77;10.73;;;;;;;9.66;100.00;97228.31;5023181;28;20498;-61
2022/11/17 09:54:19;;;;;;;16.30;10.30;;;;;;;9.49;100.00;97218.72;5024018;28;20677;-59
2022/11/17 09:56:46;;;;;;;14.52;9.32;;;;;;;9.62;100.00;97222.47;5025954;28;20037;-62
2022/11/17 09:59:17;;;;;;;15.32;8.57;;;;;;;9.56;100.00;97213.31;5039670;28;20444;-61
2022/11/17 10:01:42;;;;;;;12.05;9.38;;;;;;;9.49;100.00;97209.31;5029781;28;20042;-61
2022/11/17 10:04:15;;;;;;;12.95;9.50;;;;;;;9.45;100.00;97201.81;5030087;28;20060;-61
2022/11/17 10:06:44;;;;;;;12.65;8.43;;;;;;;9.39;100.00;97184.97;5029671;28;20244;-62
2022/11/17 10:09:19;;;;;;;11.57;7.68;;;;;;;9.46;100.00;97199.19;5028705;28;20111;-61
2022/11/17 10:11:46;;;;;;;13.60;8.27;;;;;;;9.35;100.00;97185.13;5030908;28;20037;-63
2022/11/17 10:14:19;;;;;;;12.85;8.45;;;;;;;9.51;100.00;97202.41;5023306;28;20048;-62
2022/11/17 10:16:54;;;;;;;12.88;9.00;;;;;;;9.51;100.00;97212.63;5022013;28;20056;-62
2022/11/17 10:19:24;;;;;;;13.93;8.85;;;;;;;9.45;100.00;97212.88;5024019;28;20033;-62
2022/11/17 10:21:55;;;;;;;9.80;7.35;;;;;;;9.43;100.00;97209.53;5022002;28;20189;-63
2022/11/17 10:24:33;;;;;;;12.35;7.53;;;;;;;9.44;100.00;97215.47;5023025;28;20103;-62
2022/11/17 10:27:16;;;;;;;9.60;6.97;;;;;;;9.40;100.00;97209.66;5003319;28;20141;-60
2022/11/17 10:30:01;;;;;;;9.45;6.53;;;;;;;9.42;100.00;97212.97;5023008;28;20049;-62
2022/11/17 10:32:34;;;;;;;8.75;6.35;;;;;;;9.44;100.00;97202.69;5028963;28;20041;-62
2022/11/17 10:35:16;;;;;;;10.32;7.47;;;;;;;9.53;100.00;97194.69;5029966;28;20037;-64
2022/11/17 10:37:52;;;;;;;7.85;6.63;;;;;;;9.56;100.00;97210.75;5030946;28;20108;-62
2022/11/17 10:40:20;;;;;;;9.32;7.03;;;;;;;9.34;100.00;97201.34;5030004;28;20480;-60
2022/11/17 10:43:17;;;;;;;8.52;6.53;;;;;;;9.48;100.00;97215.31;5033812;28;20044;-60
2022/11/17 10:45:44;;;;;;;8.98;7.07;;;;;;;9.51;100.00;97217.75;5035919;28;20052;-61
2022/11/17 10:48:21;;;;;;;9.20;6.70;;;;;;;9.52;100.00;97219.44;5034784;28;20073;-62
2022/11/17 10:50:58;;;;;;;9.98;7.22;;;;;;;9.54;100.00;97209.97;5034150;28;20047;-62
2022/11/17 10:53:26;;;;;;;10.77;7.10;;;;;;;9.44;100.00;97195.03;5030260;28;20041;-62
2022/11/17 10:56:06;;;;;;;11.93;7.85;;;;;;;9.60;100.00;97206.34;5031617;28;20037;-61
2022/11/17 10:58:49;;;;;;;9.90;8.32;;;;;;;9.69;100.00;97200.88;5032530;28;20041;-61
2022/11/17 11:01:26;;;;;;;8.65;7.15;;;;;;;9.58;100.00;97193.63;5033952;28;20049;-61
2022/11/17 11:03:51;;;;;;;10.48;8.82;;;;;;;9.59;100.00;97214.91;5033119;28;20044;-63
2022/11/17 11:06:24;;;;;;;8.88;7.85;;;;;;;9.63;100.00;97219.03;5033523;28;20056;-62
2022/11/17 11:08:56;;;;;;;9.90;7.57;;;;;;;9.57;100.00;97202.19;5033470;28;20057;-61
2022/11/17 11:11:24;;;;;;;13.88;9.05;;;;;;;9.50;100.00;97205.88;5027980;28;20041;-61
2022/11/17 11:13:56;;;;;;;13.75;8.95;;;;;;;9.38;100.00;97201.19;5026213;28;20044;-63
2022/11/17 11:16:25;;;;;;;9.52;7.43;;;;;;;9.43;100.00;97208.69;5025790;28;20128;-60
2022/11/17 11:18:52;;;;;;;10.48;7.45;;;;;;;9.37;100.00;97217.44;5027262;28;20123;-63
2022/11/17 11:21:43;;;;;;;10.93;7.53;;;;;;;9.41;100.00;97225.84;5026930;28;20639;-61
2022/11/17 11:24:33;;;;;;;10.52;7.05;;;;;;;9.31;100.00;97237.28;5025804;28;20481;-61
2022/11/17 11:27:20;;;;;;;7.78;6.60;;;;;;;9.36;100.00;97241.34;5030628;28;20493;-61
2022/11/17 11:30:08;;;;;;;12.50;7.22;;;;;;;9.42;100.00;97242.88;5025488;28;20045;-61
2022/11/17 11:32:49;;;;;;;10.45;8.13;;;;;;;9.44;100.00;97230.84;5024380;28;20562;-61
2022/11/17 11:35:35;;;;;;;12.10;7.25;;;;;;;9.39;100.00;97209.69;5029329;28;20041;-61
2022/11/17 11:38:30;;;;;;;15.15;8.75;;;;;;;9.35;100.00;97216.66;5024245;28;20646;-61
2022/11/17 11:41:10;;;;;;;10.57;7.57;;;;;;;9.32;100.00;97219.34;5023807;28;20053;-61
2022/11/17 11:43:53;;;;;;;10.82;8.30;;;;;;;9.33;100.00;97227.84;5029296;28;20539;-61
2022/11/17 11:46:46;;;;;;;11.38;8.32;;;;;;;9.40;100.00;97222.44;5031165;28;20041;-61
2022/11/17 11:49:30;;;;;;;17.02;11.30;;;;;;;9.47;100.00;97229.00;5029242;28;20500;-60
2022/11/17 11:51:56;;;;;;;13.60;10.05;;;;;;;9.23;100.00;97237.56;5026262;28;20522;-60
2022/11/17 11:54:37;;;;;;;11.48;8.88;;;;;;;9.26;100.00;97245.13;5032999;28;20029;-58
2022/11/17 11:57:05;;;;;;;14.90;9.43;;;;;;;9.20;100.00;97247.91;5028727;28;20128;-59
2022/11/17 12:00:01;;;;;;;13.30;8.77;;;;;;;9.07;100.00;97262.84;5026141;28;20088;-61
2022/11/17 12:02:40;;;;;;;12.77;8.68;;;;;;;9.02;100.00;97259.63;5024166;28;20098;-61
2022/11/17 12:05:15;;;;;;;13.75;9.98;;;;;;;8.77;100.00;97261.34;5027709;28;20037;-61